Sorrell, Missouri
Current Conditions -  °F | °C
As of 9:55 AM on Wednesday 28 Jan 2015 (Local Time) from KIRK Reporting Station
Haze Haze  
Wind Chill: 24°   Ceiling: Unl
Heat Index: 35°   Visibility: 6mi
Dew Point: 32°   Wind: 20mph
Humidity: 89%   Direction: 150°SSE
Pressure: 30.03"   Gusts: 28mph
Location:  40.1663°N, 93.1629°W
Report Text: KIRK 281555Z AUTO 15017G24KT 6SM BR CLR 02/00 A3003 RMK AO2 SLP180 T00170000
Loading
Personal Weather Stations






























Interactive Weather Map New forecast layout! Learn more

10-Day Weather Forecast

Advertisements
Track Severe Weather on mobile